sensor_id;sensor_type;location;lat;lon;timestamp;P1;durP1;ratioP1;P2;durP2;ratioP2
60896;SDS011;46749;32.932;-117.130;2022-07-19T00:01:49;3.28;;;1.42;;
60896;SDS011;46749;32.932;-117.130;2022-07-19T00:04:15;4.63;;;1.70;;
60896;SDS011;46749;32.932;-117.130;2022-07-19T00:06:41;3.42;;;1.42;;
60896;SDS011;46749;32.932;-117.130;2022-07-19T00:09:07;6.40;;;1.98;;
60896;SDS011;46749;32.932;-117.130;2022-07-19T00:11:33;4.97;;;1.77;;
60896;SDS011;46749;32.932;-117.130;2022-07-19T00:13:59;4.22;;;1.67;;
60896;SDS011;46749;32.932;-117.130;2022-07-19T00:16:26;4.57;;;1.65;;
60896;SDS011;46749;32.932;-117.130;2022-07-19T00:18:52;3.65;;;1.60;;
60896;SDS011;46749;32.932;-117.130;2022-07-19T00:21:18;3.05;;;1.63;;
60896;SDS011;46749;32.932;-117.130;2022-07-19T00:23:44;3.10;;;1.40;;
60896;SDS011;46749;32.932;-117.130;2022-07-19T00:26:10;5.65;;;1.85;;
60896;SDS011;46749;32.932;-117.130;2022-07-19T00:28:36;3.42;;;1.55;;
60896;SDS011;46749;32.932;-117.130;2022-07-19T00:31:02;3.65;;;1.55;;
60896;SDS011;46749;32.932;-117.130;2022-07-19T00:33:29;4.95;;;1.70;;
60896;SDS011;46749;32.932;-117.130;2022-07-19T00:35:56;3.55;;;1.50;;
60896;SDS011;46749;32.932;-117.130;2022-07-19T00:38:22;4.28;;;1.83;;
60896;SDS011;46749;32.932;-117.130;2022-07-19T00:40:48;4.25;;;1.70;;
60896;SDS011;46749;32.932;-117.130;2022-07-19T00:43:14;2.47;;;1.50;;
60896;SDS011;46749;32.932;-117.130;2022-07-19T00:45:40;4.63;;;1.80;;
60896;SDS011;46749;32.932;-117.130;2022-07-19T00:48:06;3.47;;;1.73;;
60896;SDS011;46749;32.932;-117.130;2022-07-19T00:50:33;3.03;;;1.67;;
60896;SDS011;46749;32.932;-117.130;2022-07-19T00:53:00;3.10;;;1.50;;
60896;SDS011;46749;32.932;-117.130;2022-07-19T00:55:30;3.78;;;1.75;;
60896;SDS011;46749;32.932;-117.130;2022-07-19T00:58:05;3.28;;;1.67;;
60896;SDS011;46749;32.932;-117.130;2022-07-19T01:00:32;2.97;;;1.48;;
60896;SDS011;46749;32.932;-117.130;2022-07-19T01:03:00;2.97;;;1.55;;
60896;SDS011;46749;32.932;-117.130;2022-07-19T01:05:27;2.92;;;1.30;;
60896;SDS011;46749;32.932;-117.130;2022-07-19T01:07:53;3.35;;;1.63;;
60896;SDS011;46749;32.932;-117.130;2022-07-19T01:10:19;1.98;;;1.27;;
60896;SDS011;46749;32.932;-117.130;2022-07-19T01:12:45;3.38;;;1.30;;
60896;SDS011;46749;32.932;-117.130;2022-07-19T01:17:46;2.65;;;1.17;;
60896;SDS011;46749;32.932;-117.130;2022-07-19T01:20:13;2.72;;;1.33;;
60896;SDS011;46749;32.932;-117.130;2022-07-19T01:22:40;5.35;;;1.55;;
60896;SDS011;46749;32.932;-117.130;2022-07-19T01:25:10;3.25;;;1.58;;
60896;SDS011;46749;32.932;-117.130;2022-07-19T01:27:37;5.03;;;1.80;;
60896;SDS011;46749;32.932;-117.130;2022-07-19T01:30:16;4.13;;;1.60;;
60896;SDS011;46749;32.932;-117.130;2022-07-19T01:32:44;6.38;;;1.88;;
60896;SDS011;46749;32.932;-117.130;2022-07-19T01:35:10;2.97;;;1.27;;
60896;SDS011;46749;32.932;-117.130;2022-07-19T01:37:37;4.43;;;1.70;;
60896;SDS011;46749;32.932;-117.130;2022-07-19T01:40:05;4.20;;;1.75;;
60896;SDS011;46749;32.932;-117.130;2022-07-19T01:42:32;4.78;;;1.90;;
60896;SDS011;46749;32.932;-117.130;2022-07-19T01:44:59;5.40;;;1.88;;
60896;SDS011;46749;32.932;-117.130;2022-07-19T01:47:25;4.68;;;1.80;;
60896;SDS011;46749;32.932;-117.130;2022-07-19T01:49:52;5.68;;;1.98;;
60896;SDS011;46749;32.932;-117.130;2022-07-19T01:52:18;9.25;;;2.60;;
60896;SDS011;46749;32.932;-117.130;2022-07-19T01:54:44;3.53;;;1.40;;
60896;SDS011;46749;32.932;-117.130;2022-07-19T01:57:10;4.40;;;1.63;;
60896;SDS011;46749;32.932;-117.130;2022-07-19T01:59:37;3.95;;;1.35;;
60896;SDS011;46749;32.932;-117.130;2022-07-19T02:02:03;5.82;;;1.80;;
60896;SDS011;46749;32.932;-117.130;2022-07-19T02:04:29;3.67;;;1.48;;
60896;SDS011;46749;32.932;-117.130;2022-07-19T02:06:56;4.90;;;1.45;;
60896;SDS011;46749;32.932;-117.130;2022-07-19T02:09:22;5.47;;;1.95;;
60896;SDS011;46749;32.932;-117.130;2022-07-19T02:11:48;4.78;;;1.85;;
60896;SDS011;46749;32.932;-117.130;2022-07-19T02:14:14;6.20;;;1.80;;
60896;SDS011;46749;32.932;-117.130;2022-07-19T02:16:41;4.88;;;1.70;;
60896;SDS011;46749;32.932;-117.130;2022-07-19T02:19:08;4.43;;;1.70;;
60896;SDS011;46749;32.932;-117.130;2022-07-19T02:21:34;3.22;;;1.40;;
60896;SDS011;46749;32.932;-117.130;2022-07-19T02:24:01;3.88;;;1.80;;
60896;SDS011;46749;32.932;-117.130;2022-07-19T02:26:28;5.95;;;1.80;;
60896;SDS011;46749;32.932;-117.130;2022-07-19T02:28:54;4.35;;;1.83;;
60896;SDS011;46749;32.932;-117.130;2022-07-19T02:31:20;5.55;;;1.70;;
60896;SDS011;46749;32.932;-117.130;2022-07-19T02:33:47;6.53;;;1.80;;
60896;SDS011;46749;32.932;-117.130;2022-07-19T02:36:13;8.00;;;2.03;;
60896;SDS011;46749;32.932;-117.130;2022-07-19T02:38:39;4.72;;;1.95;;
60896;SDS011;46749;32.932;-117.130;2022-07-19T02:41:06;3.75;;;1.70;;
60896;SDS011;46749;32.932;-117.130;2022-07-19T02:43:32;3.35;;;1.52;;
60896;SDS011;46749;32.932;-117.130;2022-07-19T02:45:58;3.53;;;1.30;;
60896;SDS011;46749;32.932;-117.130;2022-07-19T02:48:24;4.43;;;1.55;;
60896;SDS011;46749;32.932;-117.130;2022-07-19T02:50:50;4.70;;;1.60;;
60896;SDS011;46749;32.932;-117.130;2022-07-19T02:53:16;5.63;;;1.67;;
60896;SDS011;46749;32.932;-117.130;2022-07-19T02:55:42;6.18;;;2.00;;
60896;SDS011;46749;32.932;-117.130;2022-07-19T02:58:08;6.10;;;1.63;;
60896;SDS011;46749;32.932;-117.130;2022-07-19T03:00:35;3.97;;;1.48;;
60896;SDS011;46749;32.932;-117.130;2022-07-19T03:03:01;6.15;;;1.58;;
60896;SDS011;46749;32.932;-117.130;2022-07-19T03:05:47;4.60;;;1.80;;
60896;SDS011;46749;32.932;-117.130;2022-07-19T03:08:14;7.53;;;2.10;;
60896;SDS011;46749;32.932;-117.130;2022-07-19T03:10:40;4.88;;;1.85;;
60896;SDS011;46749;32.932;-117.130;2022-07-19T03:13:07;7.03;;;1.80;;
60896;SDS011;46749;32.932;-117.130;2022-07-19T03:15:34;3.63;;;1.60;;
60896;SDS011;46749;32.932;-117.130;2022-07-19T03:18:01;7.00;;;2.38;;
60896;SDS011;46749;32.932;-117.130;2022-07-19T03:20:27;6.82;;;1.90;;
60896;SDS011;46749;32.932;-117.130;2022-07-19T03:22:54;6.20;;;1.75;;
60896;SDS011;46749;32.932;-117.130;2022-07-19T03:25:20;8.57;;;2.15;;
60896;SDS011;46749;32.932;-117.130;2022-07-19T03:27:46;6.13;;;1.83;;
60896;SDS011;46749;32.932;-117.130;2022-07-19T03:30:13;5.57;;;2.00;;
60896;SDS011;46749;32.932;-117.130;2022-07-19T03:32:39;5.63;;;2.10;;
60896;SDS011;46749;32.932;-117.130;2022-07-19T03:35:06;4.88;;;1.98;;
60896;SDS011;46749;32.932;-117.130;2022-07-19T03:37:32;6.10;;;1.80;;
60896;SDS011;46749;32.932;-117.130;2022-07-19T03:39:58;7.32;;;2.08;;
60896;SDS011;46749;32.932;-117.130;2022-07-19T03:42:25;5.85;;;2.20;;
60896;SDS011;46749;32.932;-117.130;2022-07-19T03:44:51;5.13;;;1.70;;
60896;SDS011;46749;32.932;-117.130;2022-07-19T03:47:17;5.68;;;1.77;;
60896;SDS011;46749;32.932;-117.130;2022-07-19T03:49:43;5.55;;;2.28;;
60896;SDS011;46749;32.932;-117.130;2022-07-19T03:52:10;6.28;;;1.80;;
60896;SDS011;46749;32.932;-117.130;2022-07-19T03:54:36;6.80;;;1.80;;
60896;SDS011;46749;32.932;-117.130;2022-07-19T03:57:03;5.40;;;1.90;;
60896;SDS011;46749;32.932;-117.130;2022-07-19T03:59:29;6.20;;;1.85;;
60896;SDS011;46749;32.932;-117.130;2022-07-19T04:01:55;6.05;;;1.52;;
60896;SDS011;46749;32.932;-117.130;2022-07-19T04:04:21;6.43;;;2.00;;
60896;SDS011;46749;32.932;-117.130;2022-07-19T04:06:47;7.20;;;2.00;;
60896;SDS011;46749;32.932;-117.130;2022-07-19T04:09:13;5.85;;;2.10;;
60896;SDS011;46749;32.932;-117.130;2022-07-19T04:11:40;3.75;;;1.80;;
60896;SDS011;46749;32.932;-117.130;2022-07-19T04:14:06;4.80;;;1.60;;
60896;SDS011;46749;32.932;-117.130;2022-07-19T04:16:32;5.35;;;1.70;;
60896;SDS011;46749;32.932;-117.130;2022-07-19T04:18:58;4.88;;;1.85;;
60896;SDS011;46749;32.932;-117.130;2022-07-19T04:21:24;8.20;;;2.15;;
60896;SDS011;46749;32.932;-117.130;2022-07-19T04:23:50;6.63;;;1.73;;
60896;SDS011;46749;32.932;-117.130;2022-07-19T04:26:16;5.45;;;1.90;;
60896;SDS011;46749;32.932;-117.130;2022-07-19T04:28:43;5.38;;;1.80;;
60896;SDS011;46749;32.932;-117.130;2022-07-19T04:31:09;4.57;;;1.60;;
60896;SDS011;46749;32.932;-117.130;2022-07-19T04:33:35;5.40;;;1.88;;
60896;SDS011;46749;32.932;-117.130;2022-07-19T04:36:01;4.90;;;1.70;;
60896;SDS011;46749;32.932;-117.130;2022-07-19T04:38:27;3.42;;;1.40;;
60896;SDS011;46749;32.932;-117.130;2022-07-19T04:40:53;6.47;;;1.60;;
60896;SDS011;46749;32.932;-117.130;2022-07-19T04:43:19;7.00;;;1.90;;
60896;SDS011;46749;32.932;-117.130;2022-07-19T04:45:46;5.65;;;1.60;;
60896;SDS011;46749;32.932;-117.130;2022-07-19T04:48:12;6.35;;;1.70;;
60896;SDS011;46749;32.932;-117.130;2022-07-19T04:50:38;6.78;;;2.22;;
60896;SDS011;46749;32.932;-117.130;2022-07-19T04:53:05;7.13;;;1.83;;
60896;SDS011;46749;32.932;-117.130;2022-07-19T04:55:33;3.50;;;1.50;;
60896;SDS011;46749;32.932;-117.130;2022-07-19T04:58:01;4.47;;;1.77;;
60896;SDS011;46749;32.932;-117.130;2022-07-19T05:00:27;4.28;;;1.70;;
60896;SDS011;46749;32.932;-117.130;2022-07-19T05:02:54;4.32;;;2.08;;
60896;SDS011;46749;32.932;-117.130;2022-07-19T05:05:20;4.28;;;1.67;;
60896;SDS011;46749;32.932;-117.130;2022-07-19T05:07:47;5.65;;;1.70;;
60896;SDS011;46749;32.932;-117.130;2022-07-19T05:10:13;5.00;;;1.73;;
60896;SDS011;46749;32.932;-117.130;2022-07-19T05:12:39;3.95;;;1.90;;
60896;SDS011;46749;32.932;-117.130;2022-07-19T05:15:06;4.43;;;1.77;;
60896;SDS011;46749;32.932;-117.130;2022-07-19T05:17:33;5.82;;;1.80;;
60896;SDS011;46749;32.932;-117.130;2022-07-19T05:20:00;5.80;;;1.80;;
60896;SDS011;46749;32.932;-117.130;2022-07-19T05:22:27;2.95;;;1.45;;
60896;SDS011;46749;32.932;-117.130;2022-07-19T05:24:53;6.40;;;1.42;;
60896;SDS011;46749;32.932;-117.130;2022-07-19T05:27:21;6.13;;;1.92;;
60896;SDS011;46749;32.932;-117.130;2022-07-19T05:29:47;6.40;;;1.80;;
60896;SDS011;46749;32.932;-117.130;2022-07-19T05:32:14;4.97;;;1.70;;
60896;SDS011;46749;32.932;-117.130;2022-07-19T05:34:40;4.45;;;1.73;;
60896;SDS011;46749;32.932;-117.130;2022-07-19T05:37:06;5.70;;;1.77;;
60896;SDS011;46749;32.932;-117.130;2022-07-19T05:39:32;6.05;;;1.90;;
60896;SDS011;46749;32.932;-117.130;2022-07-19T05:41:58;4.05;;;1.50;;
60896;SDS011;46749;32.932;-117.130;2022-07-19T05:44:24;7.43;;;2.35;;
60896;SDS011;46749;32.932;-117.130;2022-07-19T05:46:51;3.15;;;1.30;;
60896;SDS011;46749;32.932;-117.130;2022-07-19T05:49:17;6.47;;;2.00;;
60896;SDS011;46749;32.932;-117.130;2022-07-19T05:51:43;6.80;;;2.08;;
60896;SDS011;46749;32.932;-117.130;2022-07-19T05:54:09;5.00;;;1.38;;
60896;SDS011;46749;32.932;-117.130;2022-07-19T05:56:35;3.97;;;1.55;;
60896;SDS011;46749;32.932;-117.130;2022-07-19T05:59:02;6.10;;;2.20;;
60896;SDS011;46749;32.932;-117.130;2022-07-19T06:01:28;4.57;;;1.88;;
60896;SDS011;46749;32.932;-117.130;2022-07-19T06:03:55;6.60;;;1.70;;
60896;SDS011;46749;32.932;-117.130;2022-07-19T06:06:25;6.20;;;2.05;;
60896;SDS011;46749;32.932;-117.130;2022-07-19T06:08:54;4.60;;;1.63;;
60896;SDS011;46749;32.932;-117.130;2022-07-19T06:11:20;6.03;;;1.63;;
60896;SDS011;46749;32.932;-117.130;2022-07-19T06:13:48;6.95;;;1.80;;
60896;SDS011;46749;32.932;-117.130;2022-07-19T06:16:15;3.53;;;1.50;;
60896;SDS011;46749;32.932;-117.130;2022-07-19T06:18:41;7.22;;;2.38;;
60896;SDS011;46749;32.932;-117.130;2022-07-19T06:21:09;5.85;;;1.73;;
60896;SDS011;46749;32.932;-117.130;2022-07-19T06:23:37;5.68;;;2.22;;
60896;SDS011;46749;32.932;-117.130;2022-07-19T06:26:04;7.70;;;1.65;;
60896;SDS011;46749;32.932;-117.130;2022-07-19T06:28:32;6.53;;;1.85;;
60896;SDS011;46749;32.932;-117.130;2022-07-19T06:30:58;6.13;;;1.60;;
60896;SDS011;46749;32.932;-117.130;2022-07-19T06:33:24;10.52;;;2.35;;
60896;SDS011;46749;32.932;-117.130;2022-07-19T06:35:50;5.63;;;1.67;;
60896;SDS011;46749;32.932;-117.130;2022-07-19T06:38:17;7.40;;;2.22;;
60896;SDS011;46749;32.932;-117.130;2022-07-19T06:40:43;4.50;;;1.80;;
60896;SDS011;46749;32.932;-117.130;2022-07-19T06:43:09;7.47;;;1.85;;
60896;SDS011;46749;32.932;-117.130;2022-07-19T06:45:36;5.25;;;2.25;;
60896;SDS011;46749;32.932;-117.130;2022-07-19T06:48:03;5.78;;;2.13;;
60896;SDS011;46749;32.932;-117.130;2022-07-19T06:50:30;8.00;;;2.13;;
60896;SDS011;46749;32.932;-117.130;2022-07-19T06:52:56;6.38;;;1.45;;
60896;SDS011;46749;32.932;-117.130;2022-07-19T06:55:22;5.63;;;1.75;;
60896;SDS011;46749;32.932;-117.130;2022-07-19T06:57:49;4.47;;;2.00;;
60896;SDS011;46749;32.932;-117.130;2022-07-19T07:00:15;4.68;;;2.00;;
60896;SDS011;46749;32.932;-117.130;2022-07-19T07:02:41;5.60;;;1.73;;
60896;SDS011;46749;32.932;-117.130;2022-07-19T07:05:08;5.85;;;1.98;;
60896;SDS011;46749;32.932;-117.130;2022-07-19T07:07:36;5.60;;;1.48;;
60896;SDS011;46749;32.932;-117.130;2022-07-19T07:10:03;3.78;;;1.52;;
60896;SDS011;46749;32.932;-117.130;2022-07-19T07:12:31;6.68;;;1.70;;
60896;SDS011;46749;32.932;-117.130;2022-07-19T07:14:58;5.18;;;2.08;;
60896;SDS011;46749;32.932;-117.130;2022-07-19T07:17:24;4.78;;;1.60;;
60896;SDS011;46749;32.932;-117.130;2022-07-19T07:19:50;5.22;;;2.00;;
60896;SDS011;46749;32.932;-117.130;2022-07-19T07:22:16;4.53;;;1.70;;
60896;SDS011;46749;32.932;-117.130;2022-07-19T07:24:43;8.18;;;2.15;;
60896;SDS011;46749;32.932;-117.130;2022-07-19T07:27:09;7.45;;;1.80;;
60896;SDS011;46749;32.932;-117.130;2022-07-19T07:29:35;5.32;;;1.60;;
60896;SDS011;46749;32.932;-117.130;2022-07-19T07:32:02;4.57;;;1.58;;
60896;SDS011;46749;32.932;-117.130;2022-07-19T07:34:28;4.60;;;1.80;;
60896;SDS011;46749;32.932;-117.130;2022-07-19T07:36:54;4.72;;;1.50;;
60896;SDS011;46749;32.932;-117.130;2022-07-19T07:39:20;8.82;;;2.17;;
60896;SDS011;46749;32.932;-117.130;2022-07-19T07:41:46;3.42;;;1.58;;
60896;SDS011;46749;32.932;-117.130;2022-07-19T07:44:12;6.07;;;2.13;;
60896;SDS011;46749;32.932;-117.130;2022-07-19T07:46:40;6.25;;;2.03;;
60896;SDS011;46749;32.932;-117.130;2022-07-19T07:49:06;6.32;;;2.30;;
60896;SDS011;46749;32.932;-117.130;2022-07-19T07:51:32;4.88;;;1.55;;
60896;SDS011;46749;32.932;-117.130;2022-07-19T07:53:59;5.97;;;1.95;;
60896;SDS011;46749;32.932;-117.130;2022-07-19T07:56:26;3.70;;;1.48;;
60896;SDS011;46749;32.932;-117.130;2022-07-19T07:58:52;6.35;;;1.55;;
60896;SDS011;46749;32.932;-117.130;2022-07-19T08:01:18;5.47;;;1.70;;
60896;SDS011;46749;32.932;-117.130;2022-07-19T08:03:45;4.95;;;1.70;;
60896;SDS011;46749;32.932;-117.130;2022-07-19T08:06:11;6.53;;;1.88;;
60896;SDS011;46749;32.932;-117.130;2022-07-19T08:08:38;4.68;;;1.85;;
60896;SDS011;46749;32.932;-117.130;2022-07-19T08:11:04;5.82;;;1.80;;
60896;SDS011;46749;32.932;-117.130;2022-07-19T08:13:30;5.78;;;2.20;;
60896;SDS011;46749;32.932;-117.130;2022-07-19T08:15:57;3.90;;;1.38;;
60896;SDS011;46749;32.932;-117.130;2022-07-19T08:18:23;5.75;;;1.80;;
60896;SDS011;46749;32.932;-117.130;2022-07-19T08:20:49;6.13;;;1.63;;
60896;SDS011;46749;32.932;-117.130;2022-07-19T08:23:15;5.70;;;1.60;;
60896;SDS011;46749;32.932;-117.130;2022-07-19T08:25:41;4.05;;;1.58;;
60896;SDS011;46749;32.932;-117.130;2022-07-19T08:28:07;4.35;;;1.63;;
60896;SDS011;46749;32.932;-117.130;2022-07-19T08:30:34;4.55;;;1.70;;
60896;SDS011;46749;32.932;-117.130;2022-07-19T08:33:00;4.35;;;1.60;;
60896;SDS011;46749;32.932;-117.130;2022-07-19T08:35:32;7.25;;;1.70;;
60896;SDS011;46749;32.932;-117.130;2022-07-19T08:37:58;4.50;;;1.30;;
60896;SDS011;46749;32.932;-117.130;2022-07-19T08:40:24;4.55;;;1.45;;
60896;SDS011;46749;32.932;-117.130;2022-07-19T08:42:50;5.57;;;1.40;;
60896;SDS011;46749;32.932;-117.130;2022-07-19T08:45:18;5.72;;;1.50;;
60896;SDS011;46749;32.932;-117.130;2022-07-19T08:47:48;6.85;;;1.83;;
60896;SDS011;46749;32.932;-117.130;2022-07-19T08:50:14;3.95;;;1.48;;
60896;SDS011;46749;32.932;-117.130;2022-07-19T08:52:41;5.68;;;1.77;;
60896;SDS011;46749;32.932;-117.130;2022-07-19T08:55:07;7.70;;;1.90;;
60896;SDS011;46749;32.932;-117.130;2022-07-19T08:57:35;4.60;;;1.38;;
60896;SDS011;46749;32.932;-117.130;2022-07-19T09:00:19;3.65;;;1.50;;
60896;SDS011;46749;32.932;-117.130;2022-07-19T09:05:18;6.38;;;2.03;;
60896;SDS011;46749;32.932;-117.130;2022-07-19T09:07:59;4.68;;;1.70;;
60896;SDS011;46749;32.932;-117.130;2022-07-19T09:10:28;5.63;;;1.60;;
60896;SDS011;46749;32.932;-117.130;2022-07-19T09:13:33;6.07;;;1.80;;
60896;SDS011;46749;32.932;-117.130;2022-07-19T09:16:00;3.53;;;1.35;;
60896;SDS011;46749;32.932;-117.130;2022-07-19T09:18:30;5.60;;;2.20;;
60896;SDS011;46749;32.932;-117.130;2022-07-19T09:20:59;5.35;;;1.60;;
60896;SDS011;46749;32.932;-117.130;2022-07-19T09:23:30;4.43;;;1.70;;
60896;SDS011;46749;32.932;-117.130;2022-07-19T09:25:57;3.13;;;1.20;;
60896;SDS011;46749;32.932;-117.130;2022-07-19T09:28:26;3.35;;;1.23;;
60896;SDS011;46749;32.932;-117.130;2022-07-19T09:30:55;4.32;;;1.70;;
60896;SDS011;46749;32.932;-117.130;2022-07-19T09:33:24;6.95;;;1.80;;
60896;SDS011;46749;32.932;-117.130;2022-07-19T09:35:56;2.78;;;1.05;;
60896;SDS011;46749;32.932;-117.130;2022-07-19T09:38:28;3.92;;;1.38;;
60896;SDS011;46749;32.932;-117.130;2022-07-19T09:41:12;4.75;;;1.63;;
60896;SDS011;46749;32.932;-117.130;2022-07-19T09:46:29;5.85;;;1.67;;
60896;SDS011;46749;32.932;-117.130;2022-07-19T09:51:36;5.13;;;1.50;;
60896;SDS011;46749;32.932;-117.130;2022-07-19T09:54:04;4.15;;;1.42;;
60896;SDS011;46749;32.932;-117.130;2022-07-19T09:56:52;5.43;;;1.40;;
60896;SDS011;46749;32.932;-117.130;2022-07-19T09:59:20;4.90;;;1.52;;
60896;SDS011;46749;32.932;-117.130;2022-07-19T10:01:48;3.53;;;1.50;;
60896;SDS011;46749;32.932;-117.130;2022-07-19T10:04:17;5.78;;;1.60;;
60896;SDS011;46749;32.932;-117.130;2022-07-19T10:06:46;4.00;;;1.40;;
60896;SDS011;46749;32.932;-117.130;2022-07-19T10:09:15;5.60;;;1.58;;
60896;SDS011;46749;32.932;-117.130;2022-07-19T10:11:43;3.92;;;1.35;;
60896;SDS011;46749;32.932;-117.130;2022-07-19T10:14:09;4.82;;;1.27;;
60896;SDS011;46749;32.932;-117.130;2022-07-19T10:19:33;5.78;;;1.98;;
60896;SDS011;46749;32.932;-117.130;2022-07-19T10:22:05;5.13;;;1.40;;
60896;SDS011;46749;32.932;-117.130;2022-07-19T10:32:36;5.80;;;1.23;;
60896;SDS011;46749;32.932;-117.130;2022-07-19T10:35:23;5.20;;;1.40;;
60896;SDS011;46749;32.932;-117.130;2022-07-19T10:37:54;4.47;;;1.65;;
60896;SDS011;46749;32.932;-117.130;2022-07-19T10:40:35;4.82;;;1.48;;
60896;SDS011;46749;32.932;-117.130;2022-07-19T10:43:11;5.00;;;1.50;;
60896;SDS011;46749;32.932;-117.130;2022-07-19T10:48:34;3.08;;;1.20;;
60896;SDS011;46749;32.932;-117.130;2022-07-19T10:51:02;5.70;;;1.60;;
60896;SDS011;46749;32.932;-117.130;2022-07-19T10:56:19;5.80;;;1.42;;
60896;SDS011;46749;32.932;-117.130;2022-07-19T11:01:34;2.33;;;1.40;;
60896;SDS011;46749;32.932;-117.130;2022-07-19T11:07:08;3.90;;;1.30;;
60896;SDS011;46749;32.932;-117.130;2022-07-19T11:09:40;4.18;;;1.33;;
60896;SDS011;46749;32.932;-117.130;2022-07-19T11:12:20;3.97;;;1.50;;
60896;SDS011;46749;32.932;-117.130;2022-07-19T11:14:55;4.35;;;1.23;;
60896;SDS011;46749;32.932;-117.130;2022-07-19T11:17:23;4.97;;;1.60;;
60896;SDS011;46749;32.932;-117.130;2022-07-19T11:22:48;3.35;;;1.30;;
60896;SDS011;46749;32.932;-117.130;2022-07-19T11:25:15;3.33;;;1.35;;
60896;SDS011;46749;32.932;-117.130;2022-07-19T11:27:48;3.45;;;1.13;;
60896;SDS011;46749;32.932;-117.130;2022-07-19T11:30:14;3.85;;;1.30;;
60896;SDS011;46749;32.932;-117.130;2022-07-19T11:32:41;3.92;;;1.38;;
60896;SDS011;46749;32.932;-117.130;2022-07-19T11:35:09;5.40;;;1.77;;
60896;SDS011;46749;32.932;-117.130;2022-07-19T11:37:38;6.80;;;1.33;;
60896;SDS011;46749;32.932;-117.130;2022-07-19T11:40:06;4.47;;;1.38;;
60896;SDS011;46749;32.932;-117.130;2022-07-19T11:42:38;3.38;;;1.30;;
60896;SDS011;46749;32.932;-117.130;2022-07-19T11:45:23;5.47;;;1.63;;
60896;SDS011;46749;32.932;-117.130;2022-07-19T11:47:52;3.05;;;1.50;;
60896;SDS011;46749;32.932;-117.130;2022-07-19T11:50:21;4.63;;;1.30;;
60896;SDS011;46749;32.932;-117.130;2022-07-19T11:55:16;3.63;;;1.38;;
60896;SDS011;46749;32.932;-117.130;2022-07-19T11:57:47;4.43;;;1.63;;
60896;SDS011;46749;32.932;-117.130;2022-07-19T12:00:14;5.72;;;1.52;;
60896;SDS011;46749;32.932;-117.130;2022-07-19T12:03:00;2.75;;;1.00;;
60896;SDS011;46749;32.932;-117.130;2022-07-19T12:05:31;6.45;;;1.35;;
60896;SDS011;46749;32.932;-117.130;2022-07-19T12:08:21;4.82;;;2.20;;
60896;SDS011;46749;32.932;-117.130;2022-07-19T12:10:56;5.43;;;1.52;;
60896;SDS011;46749;32.932;-117.130;2022-07-19T12:13:32;3.63;;;1.20;;
60896;SDS011;46749;32.932;-117.130;2022-07-19T12:16:00;3.42;;;1.00;;
60896;SDS011;46749;32.932;-117.130;2022-07-19T12:21:27;3.70;;;1.30;;
60896;SDS011;46749;32.932;-117.130;2022-07-19T12:24:18;3.63;;;1.10;;
60896;SDS011;46749;32.932;-117.130;2022-07-19T12:27:01;3.70;;;1.50;;
60896;SDS011;46749;32.932;-117.130;2022-07-19T12:29:49;3.00;;;1.20;;
60896;SDS011;46749;32.932;-117.130;2022-07-19T12:32:26;3.67;;;1.23;;
60896;SDS011;46749;32.932;-117.130;2022-07-19T12:34:58;4.35;;;1.25;;
60896;SDS011;46749;32.932;-117.130;2022-07-19T12:37:35;4.13;;;2.00;;
60896;SDS011;46749;32.932;-117.130;2022-07-19T12:42:40;3.67;;;1.33;;
60896;SDS011;46749;32.932;-117.130;2022-07-19T12:45:09;3.78;;;1.08;;
60896;SDS011;46749;32.932;-117.130;2022-07-19T12:47:40;3.10;;;1.20;;
60896;SDS011;46749;32.932;-117.130;2022-07-19T12:50:07;4.05;;;1.05;;
60896;SDS011;46749;32.932;-117.130;2022-07-19T12:52:34;2.95;;;1.10;;
60896;SDS011;46749;32.932;-117.130;2022-07-19T12:55:01;4.22;;;1.45;;
60896;SDS011;46749;32.932;-117.130;2022-07-19T12:57:27;3.28;;;0.95;;
60896;SDS011;46749;32.932;-117.130;2022-07-19T12:59:54;6.25;;;1.30;;
60896;SDS011;46749;32.932;-117.130;2022-07-19T13:02:20;3.13;;;1.30;;
60896;SDS011;46749;32.932;-117.130;2022-07-19T13:04:47;2.63;;;0.90;;
60896;SDS011;46749;32.932;-117.130;2022-07-19T13:07:13;2.65;;;1.10;;
60896;SDS011;46749;32.932;-117.130;2022-07-19T13:09:40;2.35;;;1.10;;
60896;SDS011;46749;32.932;-117.130;2022-07-19T13:12:07;1.48;;;0.73;;
60896;SDS011;46749;32.932;-117.130;2022-07-19T13:14:34;3.17;;;0.95;;
60896;SDS011;46749;32.932;-117.130;2022-07-19T13:17:00;3.13;;;1.08;;
60896;SDS011;46749;32.932;-117.130;2022-07-19T13:19:27;1.95;;;1.00;;
60896;SDS011;46749;32.932;-117.130;2022-07-19T13:21:53;1.15;;;0.80;;
60896;SDS011;46749;32.932;-117.130;2022-07-19T13:24:21;1.98;;;0.88;;
60896;SDS011;46749;32.932;-117.130;2022-07-19T13:26:47;1.52;;;0.85;;
60896;SDS011;46749;32.932;-117.130;2022-07-19T13:29:13;3.13;;;0.90;;
60896;SDS011;46749;32.932;-117.130;2022-07-19T13:31:40;3.40;;;1.02;;
60896;SDS011;46749;32.932;-117.130;2022-07-19T13:34:06;1.67;;;0.75;;
60896;SDS011;46749;32.932;-117.130;2022-07-19T13:36:32;3.00;;;1.00;;
60896;SDS011;46749;32.932;-117.130;2022-07-19T13:38:58;3.42;;;1.17;;
60896;SDS011;46749;32.932;-117.130;2022-07-19T13:41:24;2.00;;;0.90;;
60896;SDS011;46749;32.932;-117.130;2022-07-19T13:43:50;1.98;;;0.68;;
60896;SDS011;46749;32.932;-117.130;2022-07-19T13:46:19;2.30;;;1.00;;
60896;SDS011;46749;32.932;-117.130;2022-07-19T13:48:46;4.13;;;1.20;;
60896;SDS011;46749;32.932;-117.130;2022-07-19T13:51:12;2.65;;;0.75;;
60896;SDS011;46749;32.932;-117.130;2022-07-19T13:53:39;2.17;;;0.90;;
60896;SDS011;46749;32.932;-117.130;2022-07-19T13:56:05;2.17;;;1.00;;
60896;SDS011;46749;32.932;-117.130;2022-07-19T13:58:32;1.42;;;0.60;;
60896;SDS011;46749;32.932;-117.130;2022-07-19T14:00:58;3.75;;;0.85;;
60896;SDS011;46749;32.932;-117.130;2022-07-19T14:03:24;2.03;;;0.70;;
60896;SDS011;46749;32.932;-117.130;2022-07-19T14:05:52;2.25;;;1.00;;
60896;SDS011;46749;32.932;-117.130;2022-07-19T14:08:18;3.20;;;0.80;;
60896;SDS011;46749;32.932;-117.130;2022-07-19T14:10:44;1.67;;;0.68;;
60896;SDS011;46749;32.932;-117.130;2022-07-19T14:13:10;2.38;;;1.00;;
60896;SDS011;46749;32.932;-117.130;2022-07-19T14:15:38;2.05;;;0.90;;
60896;SDS011;46749;32.932;-117.130;2022-07-19T14:18:05;1.23;;;0.77;;
60896;SDS011;46749;32.932;-117.130;2022-07-19T14:20:31;1.52;;;0.70;;
60896;SDS011;46749;32.932;-117.130;2022-07-19T14:22:57;1.83;;;0.80;;
60896;SDS011;46749;32.932;-117.130;2022-07-19T14:25:23;2.50;;;0.70;;
60896;SDS011;46749;32.932;-117.130;2022-07-19T14:27:50;2.47;;;0.60;;
60896;SDS011;46749;32.932;-117.130;2022-07-19T14:30:16;1.85;;;0.70;;
60896;SDS011;46749;32.932;-117.130;2022-07-19T14:32:42;3.13;;;0.70;;
60896;SDS011;46749;32.932;-117.130;2022-07-19T14:35:08;1.10;;;0.50;;
60896;SDS011;46749;32.932;-117.130;2022-07-19T14:37:35;2.22;;;0.90;;
60896;SDS011;46749;32.932;-117.130;2022-07-19T14:40:01;3.03;;;0.70;;
60896;SDS011;46749;32.932;-117.130;2022-07-19T14:42:27;1.67;;;0.80;;
60896;SDS011;46749;32.932;-117.130;2022-07-19T14:44:57;2.15;;;0.90;;
60896;SDS011;46749;32.932;-117.130;2022-07-19T14:47:23;2.28;;;1.05;;
60896;SDS011;46749;32.932;-117.130;2022-07-19T14:49:49;1.30;;;0.60;;
60896;SDS011;46749;32.932;-117.130;2022-07-19T14:52:16;1.70;;;0.93;;
60896;SDS011;46749;32.932;-117.130;2022-07-19T14:54:42;1.25;;;0.68;;
60896;SDS011;46749;32.932;-117.130;2022-07-19T14:57:08;1.17;;;0.60;;